createdAt,value
2018-06-18T00:02:10.400Z,3.37
2018-06-18T00:04:39.237Z,3.63
2018-06-18T00:07:07.751Z,3.70
2018-06-18T00:09:36.582Z,3.53
2018-06-18T00:12:05.049Z,3.53
2018-06-18T00:14:33.565Z,3.50
2018-06-18T00:17:02.045Z,3.60
2018-06-18T00:19:30.555Z,3.40
2018-06-18T00:21:59.709Z,3.97
2018-06-18T00:24:28.830Z,3.33
2018-06-18T00:26:57.897Z,3.90
2018-06-18T00:29:26.945Z,3.57
2018-06-18T00:31:55.910Z,3.23
2018-06-18T00:34:24.486Z,4.10
2018-06-18T00:36:52.976Z,4.10
2018-06-18T00:39:21.845Z,3.90
2018-06-18T00:41:50.493Z,3.63
2018-06-18T00:44:19.005Z,4.00
2018-06-18T00:46:48.002Z,3.90
2018-06-18T00:49:17.703Z,4.10
2018-06-18T00:51:47.439Z,4.03
2018-06-18T00:54:16.842Z,4.27
2018-06-18T00:56:45.502Z,4.23
2018-06-18T00:59:13.965Z,4.03
2018-06-18T01:01:42.430Z,3.70
2018-06-18T01:04:11.091Z,4.20
2018-06-18T01:06:39.621Z,3.80
2018-06-18T01:09:09.982Z,4.20
2018-06-18T01:11:38.453Z,4.10
2018-06-18T01:14:07.002Z,4.50
2018-06-18T01:16:36.410Z,4.53
2018-06-18T01:19:04.978Z,4.57
2018-06-18T01:21:33.444Z,4.00
2018-06-18T01:24:13.111Z,4.43
2018-06-18T01:26:41.608Z,4.20
2018-06-18T01:29:10.071Z,4.40
2018-06-18T01:31:38.571Z,4.37
2018-06-18T01:34:13.153Z,4.90
2018-06-18T01:36:41.952Z,4.67
2018-06-18T01:39:10.616Z,5.23
2018-06-18T01:41:39.246Z,4.70
2018-06-18T01:44:07.721Z,5.43
2018-06-18T01:46:36.249Z,5.50
2018-06-18T01:49:04.798Z,5.60
2018-06-18T01:51:33.296Z,5.33
2018-06-18T01:54:01.897Z,5.30
2018-06-18T01:56:30.526Z,5.63
2018-06-18T01:58:59.201Z,6.13
2018-06-18T02:01:27.919Z,5.07
2018-06-18T02:03:56.599Z,5.53
2018-06-18T02:06:25.106Z,5.20
2018-06-18T02:08:53.595Z,5.50
2018-06-18T02:11:22.003Z,5.67
2018-06-18T02:13:50.492Z,5.40
2018-06-18T02:16:19.044Z,5.90
2018-06-18T02:18:47.676Z,5.80
2018-06-18T02:21:16.547Z,5.73
2018-06-18T02:23:45.434Z,5.73
2018-06-18T02:26:14.535Z,4.90
2018-06-18T02:28:48.239Z,5.17
2018-06-18T02:31:21.929Z,5.50
2018-06-18T02:33:56.117Z,5.90
2018-06-18T02:36:29.893Z,5.50
2018-06-18T02:39:03.708Z,6.40
2018-06-18T02:41:32.365Z,6.40
2018-06-18T02:44:00.847Z,6.43
2018-06-18T02:46:29.360Z,6.57
2018-06-18T02:48:58.098Z,6.13
2018-06-18T02:51:27.068Z,7.00
2018-06-18T02:53:55.717Z,6.33
2018-06-18T02:56:30.779Z,6.60
2018-06-18T02:58:59.275Z,6.03
2018-06-18T03:01:27.791Z,6.73
2018-06-18T03:03:56.253Z,7.13
2018-06-18T03:06:24.750Z,6.97
2018-06-18T03:08:53.207Z,7.47
2018-06-18T03:11:21.692Z,7.33
2018-06-18T03:13:50.171Z,7.00
2018-06-18T03:16:18.709Z,7.07
2018-06-18T03:18:52.416Z,7.00
2018-06-18T03:21:26.308Z,6.83
2018-06-18T03:24:00.145Z,7.00
2018-06-18T03:26:33.833Z,7.97
2018-06-18T03:29:07.559Z,7.30
2018-06-18T03:31:36.094Z,7.97
2018-06-18T03:34:04.646Z,7.37
2018-06-18T03:36:33.168Z,7.90
2018-06-18T03:39:01.644Z,7.77
2018-06-18T03:41:30.215Z,7.33
2018-06-18T03:44:03.859Z,7.60
2018-06-18T03:46:32.346Z,7.90
2018-06-18T03:49:00.867Z,8.80
2018-06-18T03:51:29.073Z,8.73
2018-06-18T03:53:57.826Z,8.93
2018-06-18T03:56:26.305Z,8.07
2018-06-18T03:58:54.832Z,8.47
2018-06-18T04:01:43.231Z,9.53
2018-06-18T04:04:17.171Z,9.63
2018-06-18T04:06:51.251Z,9.13
2018-06-18T04:09:25.082Z,8.87
2018-06-18T04:11:58.785Z,8.77
2018-06-18T04:14:27.282Z,9.93
2018-06-18T04:16:55.754Z,10.00
2018-06-18T04:19:24.304Z,9.67
2018-06-18T04:21:52.799Z,10.50
2018-06-18T04:24:21.443Z,10.20
2018-06-18T04:26:50.799Z,9.73
2018-06-18T04:29:21.627Z,10.70
2018-06-18T04:31:50.885Z,10.10
2018-06-18T04:34:25.371Z,9.17
2018-06-18T04:36:53.851Z,10.57
2018-06-18T04:39:23.043Z,9.07
2018-06-18T04:41:56.794Z,10.00
2018-06-18T04:44:30.562Z,8.87
2018-06-18T04:47:04.341Z,9.30
2018-06-18T04:49:38.165Z,9.00
2018-06-18T04:52:06.794Z,9.93
2018-06-18T04:54:35.286Z,9.67
2018-06-18T04:57:03.888Z,9.27
2018-06-18T04:59:33.970Z,10.23
2018-06-18T05:02:03.684Z,10.27
2018-06-18T05:04:32.145Z,9.30
2018-06-18T05:07:00.968Z,9.37
2018-06-18T05:09:36.688Z,8.57
2018-06-18T05:12:05.220Z,9.03
2018-06-18T05:14:33.886Z,8.57
2018-06-18T05:17:02.395Z,8.47
2018-06-18T05:19:30.894Z,8.73
2018-06-18T05:21:59.122Z,8.73
2018-06-18T05:24:28.059Z,8.03
2018-06-18T05:26:57.768Z,6.97
2018-06-18T05:29:27.132Z,7.27
2018-06-18T05:31:55.654Z,7.90
2018-06-18T05:34:27.721Z,7.00
2018-06-18T05:36:58.794Z,6.77
2018-06-18T05:39:27.467Z,7.17
2018-06-18T05:41:56.179Z,6.87
2018-06-18T05:44:25.412Z,6.67
2018-06-18T05:46:53.766Z,6.20
2018-06-18T05:49:22.290Z,6.40
2018-06-18T05:51:50.927Z,6.70
2018-06-18T05:54:19.978Z,5.97
2018-06-18T05:56:48.494Z,6.57
2018-06-18T05:59:17.224Z,6.30
2018-06-18T06:01:45.726Z,5.90
2018-06-18T06:04:14.596Z,5.83
2018-06-18T06:06:43.134Z,5.20
2018-06-18T06:09:12.819Z,5.03
2018-06-18T06:11:41.511Z,5.33
2018-06-18T06:14:10.054Z,5.57
2018-06-18T06:16:38.758Z,5.27
2018-06-18T06:19:07.328Z,4.60
2018-06-18T06:21:35.833Z,4.20
2018-06-18T06:24:04.333Z,4.50
2018-06-18T06:26:33.042Z,4.67
2018-06-18T06:29:01.214Z,3.83
2018-06-18T06:31:30.804Z,4.43
2018-06-18T06:33:59.434Z,4.10
2018-06-18T06:36:28.500Z,3.53
2018-06-18T06:38:57.022Z,3.00
2018-06-18T06:41:27.536Z,3.10
2018-06-18T06:43:56.083Z,2.60
2018-06-18T06:46:24.564Z,2.40
2018-06-18T06:48:53.370Z,2.20
2018-06-18T06:51:21.819Z,2.10
2018-06-18T06:53:50.335Z,2.20
2018-06-18T06:56:18.552Z,1.83
2018-06-18T06:58:47.077Z,2.17
2018-06-18T07:01:15.636Z,1.70
2018-06-18T07:03:44.149Z,1.80
2018-06-18T07:06:12.445Z,1.40
2018-06-18T07:08:42.045Z,1.63
2018-06-18T07:11:11.993Z,1.50
2018-06-18T07:13:40.584Z,1.67
2018-06-18T07:16:09.131Z,1.70
2018-06-18T07:18:37.636Z,1.70
2018-06-18T07:21:06.288Z,1.83
2018-06-18T07:23:34.893Z,1.60
2018-06-18T07:26:03.387Z,1.70
2018-06-18T07:28:32.520Z,1.83
2018-06-18T07:31:00.947Z,1.90
2018-06-18T07:33:33.421Z,1.93
2018-06-18T07:36:02.304Z,1.90
2018-06-18T07:38:30.857Z,2.00
2018-06-18T07:40:59.539Z,1.80
2018-06-18T07:43:28.039Z,1.97
2018-06-18T07:45:56.553Z,1.70
2018-06-18T07:48:25.096Z,1.63
2018-06-18T07:50:53.626Z,1.57
2018-06-18T07:53:22.135Z,1.40
2018-06-18T07:55:50.367Z,1.10
2018-06-18T07:58:18.883Z,1.40
2018-06-18T08:00:47.461Z,1.10
2018-06-18T08:03:15.983Z,1.20
2018-06-18T08:05:44.677Z,1.10
2018-06-18T08:08:13.318Z,1.10
2018-06-18T08:10:41.631Z,1.20
2018-06-18T08:13:10.163Z,1.10
2018-06-18T08:15:38.635Z,1.30
2018-06-18T08:18:07.798Z,1.47
2018-06-18T08:20:36.434Z,1.30
2018-06-18T08:23:05.598Z,1.40
2018-06-18T08:25:34.295Z,1.40
2018-06-18T08:28:03.126Z,1.43
2018-06-18T08:30:31.999Z,1.50
2018-06-18T08:33:00.638Z,1.50
2018-06-18T08:35:29.238Z,1.50
2018-06-18T08:37:57.911Z,1.77
2018-06-18T08:40:26.557Z,1.70
2018-06-18T08:42:55.073Z,1.80
2018-06-18T08:45:23.657Z,1.80
2018-06-18T08:47:52.138Z,1.80
2018-06-18T08:50:25.878Z,2.00
2018-06-18T08:52:59.755Z,1.77
2018-06-18T08:55:33.652Z,1.90
2018-06-18T08:58:07.627Z,1.80
2018-06-18T09:00:41.482Z,1.73
2018-06-18T09:03:11.558Z,1.70
2018-06-18T09:05:45.188Z,1.80
2018-06-18T09:08:19.218Z,1.90
2018-06-18T09:10:48.594Z,1.90
2018-06-18T09:13:17.140Z,2.00
2018-06-18T09:15:45.649Z,2.30
2018-06-18T09:18:14.161Z,2.60
2018-06-18T09:20:42.848Z,2.50
2018-06-18T09:23:11.671Z,2.90
2018-06-18T09:25:47.299Z,2.87
2018-06-18T09:28:16.451Z,2.90
2018-06-18T09:30:44.994Z,3.10
2018-06-18T09:33:13.502Z,2.90
2018-06-18T09:35:42.041Z,2.90
2018-06-18T09:38:10.537Z,2.80
2018-06-18T09:40:39.115Z,3.20
2018-06-18T09:43:07.773Z,3.53
2018-06-18T09:45:36.336Z,3.27
2018-06-18T09:48:04.938Z,3.70
2018-06-18T09:50:38.613Z,3.47
2018-06-18T09:53:12.441Z,3.57
2018-06-18T09:55:46.284Z,3.70
2018-06-18T09:58:19.909Z,3.50
2018-06-18T10:01:06.504Z,3.90
2018-06-18T10:03:35.002Z,3.40
2018-06-18T10:06:04.776Z,3.83
2018-06-18T10:08:33.332Z,3.80
2018-06-18T10:11:02.043Z,3.73
2018-06-18T10:13:30.546Z,4.23
2018-06-18T10:15:59.280Z,3.80
2018-06-18T10:18:27.831Z,3.30
2018-06-18T10:20:56.464Z,3.80
2018-06-18T10:23:25.002Z,3.57
2018-06-18T10:25:53.936Z,3.30
2018-06-18T10:28:22.459Z,3.43
2018-06-18T10:30:51.322Z,2.83
2018-06-18T10:33:25.184Z,2.90
2018-06-18T10:35:59.034Z,2.57
2018-06-18T10:38:32.903Z,2.80
2018-06-18T10:41:07.048Z,2.37
2018-06-18T10:43:36.860Z,2.77
2018-06-18T10:46:05.580Z,2.10
2018-06-18T10:48:34.096Z,2.03
2018-06-18T10:51:02.744Z,1.92
2018-06-18T10:53:31.478Z,1.90
2018-06-18T10:55:59.987Z,1.77
2018-06-18T10:58:28.805Z,2.00
2018-06-18T11:00:59.626Z,1.83
2018-06-18T11:03:28.436Z,1.60
2018-06-18T11:06:02.334Z,1.60
2018-06-18T11:08:30.496Z,1.70
2018-06-18T11:10:59.021Z,1.53
2018-06-18T11:13:28.090Z,1.70
2018-06-18T11:15:56.854Z,1.87
2018-06-18T11:18:30.529Z,1.53
2018-06-18T11:21:04.414Z,1.67
2018-06-18T11:23:38.169Z,1.40
2018-06-18T11:27:11.952Z,1.47
2018-06-18T11:29:40.705Z,1.53
2018-06-18T11:32:09.230Z,1.63
2018-06-18T11:34:37.770Z,1.50
2018-06-18T11:37:06.294Z,1.60
2018-06-18T11:39:34.810Z,1.73
2018-06-18T11:42:03.584Z,1.53
2018-06-18T11:44:32.034Z,2.00
2018-06-18T11:47:00.544Z,2.00
2018-06-18T11:49:29.406Z,2.10
2018-06-18T11:51:57.930Z,2.93
2018-06-18T11:54:26.441Z,2.53
2018-06-18T11:56:55.076Z,2.50
2018-06-18T11:59:28.956Z,3.00
2018-06-18T12:04:04.148Z,2.60
2018-06-18T12:06:37.866Z,3.73
2018-06-18T12:09:13.479Z,4.00
2018-06-18T12:11:43.733Z,3.60
2018-06-18T12:14:12.223Z,3.77
2018-06-18T12:16:40.812Z,3.60
2018-06-18T12:19:09.290Z,3.50
2018-06-18T12:21:37.867Z,2.90
2018-06-18T12:24:07.760Z,2.77
2018-06-18T12:26:36.418Z,2.70
2018-06-18T12:29:04.952Z,2.10
2018-06-18T12:31:33.447Z,2.40
2018-06-18T12:34:02.808Z,2.30
2018-06-18T12:36:31.363Z,2.40
2018-06-18T12:38:59.901Z,2.33
2018-06-18T12:41:28.472Z,2.60
2018-06-18T12:43:58.755Z,2.03
2018-06-18T12:47:34.638Z,2.23
2018-06-18T12:50:08.787Z,2.30
2018-06-18T12:52:42.413Z,2.40
2018-06-18T12:55:16.008Z,2.10
2018-06-18T12:59:13.685Z,2.20
2018-06-18T13:01:46.886Z,1.77
2018-06-18T13:04:15.567Z,1.90
2018-06-18T13:06:44.089Z,2.00
2018-06-18T13:09:12.606Z,2.13
2018-06-18T13:11:40.785Z,1.90
2018-06-18T13:14:09.304Z,1.87
2018-06-18T13:16:37.853Z,2.10
2018-06-18T13:19:06.523Z,2.23
2018-06-18T13:21:35.092Z,2.20
2018-06-18T13:24:03.653Z,2.20
2018-06-18T13:26:32.359Z,1.80
2018-06-18T13:29:00.895Z,2.10
2018-06-18T13:31:29.871Z,2.20
2018-06-18T13:33:58.426Z,1.90
2018-06-18T13:36:26.951Z,2.20
2018-06-18T13:39:00.674Z,1.90
2018-06-18T13:41:34.506Z,2.10
2018-06-18T13:44:08.316Z,1.90
2018-06-18T13:46:42.442Z,2.00
2018-06-18T13:49:11.588Z,1.83
2018-06-18T13:51:40.335Z,1.73
2018-06-18T13:54:08.809Z,2.00
2018-06-18T13:56:37.283Z,2.07
2018-06-18T13:59:05.855Z,1.80
2018-06-18T14:01:34.352Z,1.70
2018-06-18T14:04:03.050Z,1.60
2018-06-18T14:06:31.555Z,1.70
2018-06-18T14:09:00.264Z,1.90
2018-06-18T14:11:28.853Z,2.00
2018-06-18T14:13:57.360Z,1.80
2018-06-18T14:16:25.865Z,1.90
2018-06-18T14:18:54.730Z,1.80
2018-06-18T14:21:23.239Z,1.80
2018-06-18T14:23:51.756Z,1.80
2018-06-18T14:26:20.290Z,1.77
2018-06-18T14:28:48.825Z,2.03
2018-06-18T14:31:22.408Z,1.50
2018-06-18T14:33:56.532Z,1.80
2018-06-18T14:36:31.259Z,1.70
2018-06-18T14:39:05.113Z,1.77
2018-06-18T14:41:33.664Z,1.80
2018-06-18T14:44:02.282Z,1.67
2018-06-18T14:46:30.807Z,1.60
2018-06-18T14:48:59.412Z,1.60
2018-06-18T14:51:27.911Z,1.50
2018-06-18T14:53:56.411Z,1.40
2018-06-18T14:56:28.465Z,1.60
2018-06-18T14:59:04.320Z,1.40
2018-06-18T15:01:32.882Z,1.40
2018-06-18T15:04:01.668Z,1.30
2018-06-18T15:06:30.239Z,1.40
2018-06-18T15:08:58.629Z,1.30
2018-06-18T15:11:27.197Z,1.40
2018-06-18T15:13:55.843Z,1.43
2018-06-18T15:16:28.531Z,1.47
2018-06-18T15:18:57.697Z,1.57
2018-06-18T15:21:26.581Z,1.80
2018-06-18T15:23:55.691Z,1.60
2018-06-18T15:26:24.350Z,1.70
2018-06-18T15:28:53.047Z,1.60
2018-06-18T15:31:21.904Z,1.70
2018-06-18T15:33:50.382Z,1.90
2018-06-18T15:36:18.914Z,2.10
2018-06-18T15:38:47.382Z,1.97
2018-06-18T15:41:15.915Z,1.90
2018-06-18T15:43:44.490Z,2.10
2018-06-18T15:46:13.222Z,1.90
2018-06-18T15:48:41.721Z,2.00
2018-06-18T15:51:10.530Z,2.27
2018-06-18T15:53:38.733Z,2.20
2018-06-18T15:56:07.210Z,2.20
2018-06-18T15:58:35.726Z,2.07
2018-06-18T16:01:04.276Z,2.40
2018-06-18T16:03:32.752Z,1.93
2018-06-18T16:06:01.286Z,1.90
2018-06-18T16:08:30.086Z,1.70
2018-06-18T16:10:58.585Z,1.73
2018-06-18T16:13:28.212Z,1.57
2018-06-18T16:15:56.730Z,1.93
2018-06-18T16:18:25.241Z,1.80
2018-06-18T16:20:54.047Z,1.47
2018-06-18T16:23:22.832Z,1.60
2018-06-18T16:25:51.396Z,1.70
2018-06-18T16:28:20.123Z,1.53
2018-06-18T16:30:48.627Z,1.37
2018-06-18T16:33:17.265Z,1.73
2018-06-18T16:35:45.785Z,1.57
2018-06-18T16:38:14.269Z,1.63
2018-06-18T16:40:43.361Z,1.43
2018-06-18T16:43:11.879Z,1.40
2018-06-18T16:45:40.403Z,1.50
2018-06-18T16:48:08.967Z,1.30
2018-06-18T16:50:37.610Z,1.57
2018-06-18T16:53:06.109Z,1.20
2018-06-18T16:55:34.619Z,1.50
2018-06-18T16:58:03.331Z,1.40
2018-06-18T17:00:31.888Z,1.70
2018-06-18T17:03:00.427Z,1.63
2018-06-18T17:05:28.928Z,1.40
2018-06-18T17:07:57.445Z,1.40
2018-06-18T17:10:26.133Z,1.87
2018-06-18T17:12:55.434Z,1.60
2018-06-18T17:15:23.993Z,1.63
2018-06-18T17:17:52.789Z,1.60
2018-06-18T17:20:21.635Z,1.60
2018-06-18T17:22:50.723Z,1.57
2018-06-18T17:25:19.218Z,1.70
2018-06-18T17:27:48.141Z,1.57
2018-06-18T17:30:16.796Z,1.67
2018-06-18T17:32:45.292Z,1.30
2018-06-18T17:35:13.940Z,1.80
2018-06-18T17:37:42.659Z,1.80
2018-06-18T17:40:11.502Z,1.80
2018-06-18T17:42:40.291Z,1.70
2018-06-18T17:45:08.868Z,1.67
2018-06-18T17:47:37.530Z,1.50
2018-06-18T17:50:06.321Z,1.70
2018-06-18T17:52:35.015Z,1.80
2018-06-18T17:55:03.527Z,1.60
2018-06-18T17:57:32.028Z,1.60
2018-06-18T18:00:00.618Z,1.63
2018-06-18T18:02:29.193Z,1.53
2018-06-18T18:04:58.442Z,1.60
2018-06-18T18:07:28.513Z,1.60
2018-06-18T18:09:57.273Z,1.57
2018-06-18T18:12:25.507Z,1.60
2018-06-18T18:14:54.023Z,1.70
2018-06-18T18:17:22.500Z,1.60
2018-06-18T18:19:51.007Z,1.70
2018-06-18T18:22:19.515Z,1.33
2018-06-18T18:24:48.008Z,1.50
2018-06-18T18:27:16.566Z,1.67
2018-06-18T18:29:45.096Z,1.33
2018-06-18T18:32:14.113Z,1.60
2018-06-18T18:34:42.660Z,1.50
2018-06-18T18:37:11.293Z,1.50
2018-06-18T18:39:39.968Z,1.60
2018-06-18T18:42:08.741Z,1.77
2018-06-18T18:44:37.352Z,1.70
2018-06-18T18:47:05.990Z,1.50
2018-06-18T18:49:34.193Z,1.47
2018-06-18T18:52:02.951Z,1.67
2018-06-18T18:55:59.183Z,1.70
2018-06-18T18:58:56.878Z,1.70
2018-06-18T19:01:25.465Z,1.70
2018-06-18T19:03:56.492Z,1.63
2018-06-18T19:06:25.053Z,1.70
2018-06-18T19:08:53.837Z,1.83
2018-06-18T19:11:22.462Z,2.07
2018-06-18T19:13:51.614Z,1.97
2018-06-18T19:16:20.133Z,2.20
2018-06-18T19:18:55.974Z,2.10
2018-06-18T19:21:24.571Z,1.90
2018-06-18T19:23:53.167Z,2.20
2018-06-18T19:26:21.709Z,2.10
2018-06-18T19:28:50.317Z,2.10
2018-06-18T19:31:21.152Z,2.00
2018-06-18T19:34:17.451Z,1.80
2018-06-18T19:36:49.084Z,1.97
2018-06-18T19:39:17.711Z,1.90
2018-06-18T19:41:46.197Z,2.10
2018-06-18T19:44:14.783Z,1.90
2018-06-18T19:47:51.874Z,1.90
2018-06-18T19:50:20.568Z,1.90
2018-06-18T19:52:49.171Z,1.80
2018-06-18T19:55:20.622Z,2.30
2018-06-18T19:57:49.192Z,2.30
2018-06-18T20:00:17.778Z,2.30
2018-06-18T20:02:46.314Z,2.73
2018-06-18T20:05:15.420Z,3.00
2018-06-18T20:07:54.526Z,2.90
2018-06-18T20:10:24.304Z,2.53
2018-06-18T20:12:53.351Z,2.60
2018-06-18T20:15:21.869Z,3.10
2018-06-18T20:17:50.381Z,2.90
2018-06-18T20:20:18.881Z,3.03
2018-06-18T20:22:47.406Z,2.90
2018-06-18T20:25:18.166Z,3.10
2018-06-18T20:27:46.726Z,3.10
2018-06-18T20:30:15.216Z,3.40
2018-06-18T20:32:43.928Z,2.67
2018-06-18T20:35:22.970Z,3.07
2018-06-18T20:37:51.606Z,3.00
2018-06-18T20:40:20.351Z,3.00
2018-06-18T20:42:49.736Z,3.57
2018-06-18T20:45:18.324Z,2.90
2018-06-18T20:47:47.024Z,3.23
2018-06-18T20:50:16.018Z,3.27
2018-06-18T20:52:45.008Z,3.33
2018-06-18T20:55:13.584Z,3.07
2018-06-18T20:57:42.361Z,3.33
2018-06-18T21:00:11.148Z,3.50
2018-06-18T21:02:39.675Z,3.63
2018-06-18T21:05:08.349Z,3.30
2018-06-18T21:07:36.858Z,3.30
2018-06-18T21:10:06.035Z,3.70
2018-06-18T21:12:35.078Z,3.40
2018-06-18T21:15:03.664Z,3.13
2018-06-18T21:17:32.173Z,2.87
2018-06-18T21:20:00.670Z,3.20
2018-06-18T21:22:29.221Z,3.80
2018-06-18T21:24:57.955Z,3.00
2018-06-18T21:27:26.742Z,3.57
2018-06-18T21:29:55.297Z,3.50
2018-06-18T21:32:23.993Z,3.87
2018-06-18T21:34:52.713Z,3.73
2018-06-18T21:37:21.310Z,3.70
2018-06-18T21:39:49.835Z,4.10
2018-06-18T21:42:18.349Z,3.50
2018-06-18T21:44:53.957Z,3.73
2018-06-18T21:47:22.461Z,3.57
2018-06-18T21:49:50.628Z,4.20
2018-06-18T21:52:19.164Z,4.23
2018-06-18T21:54:47.700Z,4.27
2018-06-18T21:57:16.234Z,4.30
2018-06-18T21:59:44.763Z,3.90
2018-06-18T22:02:13.286Z,4.47
2018-06-18T22:04:41.842Z,4.10
2018-06-18T22:07:10.362Z,4.17
2018-06-18T22:09:38.884Z,4.27
2018-06-18T22:12:07.558Z,4.37
2018-06-18T22:14:36.115Z,4.70
2018-06-18T22:17:06.641Z,4.80
2018-06-18T22:19:35.166Z,5.03
2018-06-18T22:22:03.737Z,5.10
2018-06-18T22:24:31.914Z,4.57
2018-06-18T22:27:00.432Z,4.70
2018-06-18T22:29:28.968Z,5.20
2018-06-18T22:31:57.480Z,5.77
2018-06-18T22:34:25.951Z,5.50
2018-06-18T22:36:54.507Z,4.80
2018-06-18T22:39:23.021Z,5.27
2018-06-18T22:41:51.597Z,5.30
2018-06-18T22:44:20.116Z,5.23
2018-06-18T22:46:48.683Z,5.17
2018-06-18T22:49:17.191Z,5.83
2018-06-18T22:51:45.886Z,5.93
2018-06-18T22:54:14.389Z,5.83
2018-06-18T22:56:42.934Z,6.60
2018-06-18T22:59:11.450Z,6.70
2018-06-18T23:01:41.537Z,6.60
2018-06-18T23:04:10.017Z,6.77
2018-06-18T23:06:38.525Z,6.40
2018-06-18T23:09:09.746Z,6.00
2018-06-18T23:11:38.710Z,6.53
2018-06-18T23:14:11.163Z,6.73
2018-06-18T23:16:40.093Z,7.37
2018-06-18T23:19:08.658Z,7.77
2018-06-18T23:21:37.735Z,7.10
2018-06-18T23:24:06.229Z,7.07
2018-06-18T23:26:34.732Z,6.77
2018-06-18T23:29:09.671Z,7.17
2018-06-18T23:31:38.207Z,6.37
2018-06-18T23:34:06.809Z,7.00
2018-06-18T23:36:35.405Z,8.10
2018-06-18T23:39:07.171Z,6.73
2018-06-18T23:41:37.520Z,7.30
2018-06-18T23:44:06.076Z,7.43
2018-06-18T23:46:34.546Z,7.40
2018-06-18T23:49:03.026Z,7.40
2018-06-18T23:51:32.794Z,7.27
2018-06-18T23:54:01.533Z,7.77
2018-06-18T23:56:30.152Z,8.10
2018-06-18T23:58:59.405Z,7.27
